Terminal Aerodrome Forecast
Issued by NWS Albuquerque, NM

Home | Current Version | Previous Version | Text Only | Print | Product List | Glossary On
Versions: 1 2 3 4 5 6 7 8 9 10 11 12 13
000
FTUS45 KABQ 201700
TAFABQ
TAF
KABQ 201736Z 2018/2118 VRB05KT P6SM SKC
     FM201930 09010KT P6SM FEW070
     FM202200 09013G24KT P6SM SCT090
     FM210030 09018G30KT P6SM FEW050 SCT140
     FM210700 09016G27KT P6SM SCT035 BKN080=

USA.gov is the U.S. government's official web portal to all federal, state and local government web resources and services.